OVO3501 ZBAA-ZLXN
Flight info
| Callsign | OVO3501 |
|---|---|
| Flight time | 2h 2m |
| Altitude | 38100 |
| Route | BOTPU6J BOTPU W47 VIGEK W96 UPSUR W69 EGILO/K0865S1190 W193 BAV/K0872S1160 W220 NIRUV B215 IDUGI/K0880S1190 B330 BIGUX/K0883S1160 W111 UPVOP UPV19A |
| Aircraft | A346/H-SDE2E3FGHIJ3J4J5M1RWXY/LB1D1 |
Departure
| Time | 2026-04-23 10:47 |
|---|---|
| Airport | Beijing Capital International Airport (ZBAA) |
Arrival
| Time | 2026-04-23 12:49 |
|---|---|
| Airport | Xining Caojiabao International Airport (ZLXN) |
| Time | Latitude | Longitude | Altitude | Speed | Heading |
|---|---|---|---|---|---|
| 2026-04-23 10:22 | 40.07856 | 116.60284 | 130 ft | 0 kts | 203° |
| 2026-04-23 10:38 | 40.07867 | 116.60290 | 130 ft | 4 kts | 203° |
| 2026-04-23 10:38 | 40.07888 | 116.60302 | 130 ft | 4 kts | 208° |
| 2026-04-23 10:38 | 40.07904 | 116.60320 | 131 ft | 4 kts | 239° |
| 2026-04-23 10:39 | 40.07910 | 116.60344 | 129 ft | 4 kts | 273° |
| 2026-04-23 10:39 | 40.07905 | 116.60376 | 129 ft | 4 kts | 291° |
| 2026-04-23 10:39 | 40.07901 | 116.60388 | 128 ft | 0 kts | 293° |
| 2026-04-23 10:40 | 40.07901 | 116.60389 | 128 ft | 0 kts | 293° |
| 2026-04-23 10:43 | 40.07902 | 116.60386 | 127 ft | 1 kts | 293° |
| 2026-04-23 10:43 | 40.07910 | 116.60362 | 126 ft | 5 kts | 293° |
| 2026-04-23 10:43 | 40.07927 | 116.60309 | 133 ft | 8 kts | 293° |
| 2026-04-23 10:43 | 40.07953 | 116.60228 | 127 ft | 11 kts | 293° |
| 2026-04-23 10:44 | 40.07988 | 116.60121 | 126 ft | 14 kts | 291° |
| 2026-04-23 10:44 | 40.07993 | 116.59984 | 125 ft | 16 kts | 265° |
| 2026-04-23 10:44 | 40.08010 | 116.59879 | 128 ft | 12 kts | 333° |
| 2026-04-23 10:44 | 40.08102 | 116.59851 | 125 ft | 15 kts | 352° |
| 2026-04-23 10:45 | 40.08219 | 116.59832 | 130 ft | 19 kts | 353° |
| 2026-04-23 10:45 | 40.08362 | 116.59809 | 125 ft | 22 kts | 353° |
| 2026-04-23 10:45 | 40.08522 | 116.59784 | 127 ft | 24 kts | 353° |
| 2026-04-23 10:45 | 40.08696 | 116.59756 | 127 ft | 26 kts | 353° |
| 2026-04-23 10:46 | 40.08851 | 116.59730 | 131 ft | 13 kts | 346° |
| 2026-04-23 10:46 | 40.08886 | 116.59637 | 130 ft | 14 kts | 265° |
| 2026-04-23 10:46 | 40.08867 | 116.59511 | 125 ft | 13 kts | 219° |
| 2026-04-23 10:46 | 40.08763 | 116.59512 | 130 ft | 20 kts | 172° |
| 2026-04-23 10:47 | 40.08388 | 116.59572 | 131 ft | 88 kts | 173° |
| 2026-04-23 10:47 | 40.07575 | 116.59698 | 128 ft | 145 kts | 173° |
| 2026-04-23 10:47 | 40.06439 | 116.59852 | 370 ft | 174 kts | 175° |
| 2026-04-23 10:47 | 40.05219 | 116.60031 | 991 ft | 179 kts | 176° |
| 2026-04-23 10:48 | 40.03990 | 116.60233 | 1826 ft | 175 kts | 176° |
| 2026-04-23 10:48 | 40.02775 | 116.60428 | 2451 ft | 181 kts | 176° |
| 2026-04-23 10:48 | 40.01464 | 116.60632 | 2863 ft | 198 kts | 176° |
| 2026-04-23 10:48 | 40.00040 | 116.60852 | 3264 ft | 215 kts | 176° |
| 2026-04-23 10:49 | 39.98478 | 116.61095 | 3667 ft | 236 kts | 176° |
| 2026-04-23 10:49 | 39.96785 | 116.61359 | 4223 ft | 252 kts | 176° |
| 2026-04-23 10:49 | 39.95020 | 116.61639 | 4999 ft | 259 kts | 176° |
| 2026-04-23 10:49 | 39.93202 | 116.61924 | 5830 ft | 265 kts | 176° |
| 2026-04-23 10:50 | 39.91347 | 116.62213 | 6612 ft | 272 kts | 176° |
| 2026-04-23 10:50 | 39.89446 | 116.62509 | 7406 ft | 278 kts | 176° |
| 2026-04-23 10:50 | 39.88165 | 116.62706 | 7960 ft | 282 kts | 176° |
| 2026-04-23 10:50 | 39.86183 | 116.63014 | 8797 ft | 288 kts | 176° |
| 2026-04-23 10:51 | 39.84168 | 116.63328 | 9663 ft | 295 kts | 176° |
| 2026-04-23 10:51 | 39.82111 | 116.63647 | 10451 ft | 302 kts | 176° |
| 2026-04-23 10:51 | 39.79966 | 116.63973 | 10996 ft | 319 kts | 175° |
| 2026-04-23 10:51 | 39.76931 | 116.64435 | 11621 ft | 344 kts | 175° |
| 2026-04-23 10:52 | 39.74493 | 116.64806 | 12092 ft | 362 kts | 175° |
| 2026-04-23 10:52 | 39.72768 | 116.64950 | 12364 ft | 374 kts | 184° |
| 2026-04-23 10:52 | 39.70189 | 116.64245 | 12774 ft | 386 kts | 204° |
| 2026-04-23 10:52 | 39.67900 | 116.62414 | 13502 ft | 388 kts | 224° |
| 2026-04-23 10:53 | 39.66193 | 116.59722 | 14308 ft | 387 kts | 242° |
| 2026-04-23 10:53 | 39.65251 | 116.56468 | 15095 ft | 386 kts | 261° |
| 2026-04-23 10:53 | 39.64973 | 116.52992 | 15903 ft | 388 kts | 267° |
| 2026-04-23 10:53 | 39.64761 | 116.49473 | 16673 ft | 393 kts | 267° |
| 2026-04-23 10:54 | 39.64541 | 116.45902 | 17436 ft | 399 kts | 267° |
| 2026-04-23 10:54 | 39.64314 | 116.42290 | 18180 ft | 404 kts | 266° |
| 2026-04-23 10:54 | 39.64079 | 116.38636 | 18829 ft | 408 kts | 266° |
| 2026-04-23 10:54 | 39.63838 | 116.34933 | 19474 ft | 413 kts | 266° |
| 2026-04-23 10:55 | 39.63594 | 116.31196 | 20110 ft | 418 kts | 266° |
| 2026-04-23 10:55 | 39.63348 | 116.27464 | 20741 ft | 422 kts | 266° |
| 2026-04-23 10:55 | 39.63093 | 116.23644 | 21381 ft | 427 kts | 267° |
| 2026-04-23 10:55 | 39.62837 | 116.19782 | 22025 ft | 431 kts | 266° |
| 2026-04-23 10:56 | 39.62577 | 116.15878 | 22621 ft | 437 kts | 266° |
| 2026-04-23 10:56 | 39.62312 | 116.11923 | 23203 ft | 442 kts | 267° |
| 2026-04-23 10:56 | 39.62041 | 116.07929 | 23748 ft | 447 kts | 267° |
| 2026-04-23 10:56 | 39.61765 | 116.03894 | 24271 ft | 450 kts | 267° |
| 2026-04-23 10:57 | 39.61491 | 115.99826 | 24800 ft | 454 kts | 266° |
| 2026-04-23 10:57 | 39.61210 | 115.95724 | 25305 ft | 458 kts | 266° |
| 2026-04-23 10:57 | 39.60918 | 115.91586 | 25849 ft | 461 kts | 266° |
| 2026-04-23 10:57 | 39.60712 | 115.87423 | 26372 ft | 463 kts | 272° |
| 2026-04-23 10:58 | 39.61034 | 115.83261 | 26819 ft | 464 kts | 283° |
| 2026-04-23 10:58 | 39.61935 | 115.79238 | 27311 ft | 465 kts | 293° |
| 2026-04-23 10:58 | 39.63333 | 115.75444 | 27820 ft | 467 kts | 299° |
| 2026-04-23 10:58 | 39.64906 | 115.71744 | 28332 ft | 469 kts | 303° |
| 2026-04-23 10:59 | 39.66818 | 115.68324 | 28981 ft | 466 kts | 312° |
| 2026-04-23 10:59 | 39.69069 | 115.65343 | 29812 ft | 460 kts | 320° |
| 2026-04-23 10:59 | 39.71594 | 115.62838 | 30539 ft | 455 kts | 328° |
| 2026-04-23 10:59 | 39.74346 | 115.60845 | 31203 ft | 451 kts | 335° |
| 2026-04-23 11:00 | 39.77212 | 115.59202 | 31859 ft | 448 kts | 337° |
| 2026-04-23 11:00 | 39.80041 | 115.57652 | 32498 ft | 446 kts | 338° |
| 2026-04-23 11:00 | 39.82904 | 115.56094 | 33109 ft | 445 kts | 338° |
| 2026-04-23 11:00 | 39.85754 | 115.54535 | 33691 ft | 444 kts | 338° |
| 2026-04-23 11:01 | 39.88572 | 115.52916 | 34216 ft | 443 kts | 333° |
| 2026-04-23 11:01 | 39.91191 | 115.50805 | 34680 ft | 442 kts | 323° |
| 2026-04-23 11:01 | 39.93516 | 115.48190 | 35162 ft | 442 kts | 315° |
| 2026-04-23 11:01 | 39.95507 | 115.45147 | 35634 ft | 441 kts | 306° |
| 2026-04-23 11:02 | 39.97121 | 115.41747 | 36052 ft | 441 kts | 298° |
| 2026-04-23 11:02 | 39.98322 | 115.38063 | 36426 ft | 442 kts | 289° |
| 2026-04-23 11:02 | 39.99083 | 115.34161 | 36766 ft | 445 kts | 281° |
| 2026-04-23 11:02 | 39.99422 | 115.30138 | 37109 ft | 447 kts | 276° |
| 2026-04-23 11:03 | 39.99643 | 115.26091 | 37440 ft | 447 kts | 275° |
| 2026-04-23 11:03 | 39.99846 | 115.22031 | 37722 ft | 448 kts | 275° |
| 2026-04-23 11:03 | 40.00046 | 115.17968 | 37953 ft | 450 kts | 275° |
| 2026-04-23 11:03 | 40.00246 | 115.13884 | 37942 ft | 451 kts | 275° |
| 2026-04-23 11:04 | 40.00647 | 115.05712 | 37940 ft | 451 kts | 275° |
| 2026-04-23 11:04 | 40.01048 | 114.97522 | 37938 ft | 452 kts | 275° |
| 2026-04-23 11:05 | 40.01445 | 114.89326 | 37940 ft | 452 kts | 275° |
| 2026-04-23 11:05 | 40.01838 | 114.81125 | 37956 ft | 452 kts | 275° |
| 2026-04-23 11:06 | 40.02416 | 114.68820 | 37936 ft | 452 kts | 275° |
| 2026-04-23 11:07 | 40.02795 | 114.60614 | 37926 ft | 452 kts | 275° |
| 2026-04-23 11:07 | 40.03165 | 114.52461 | 37929 ft | 452 kts | 275° |
| 2026-04-23 11:08 | 40.03533 | 114.44259 | 37923 ft | 452 kts | 274° |
| 2026-04-23 11:08 | 40.03897 | 114.36052 | 37917 ft | 453 kts | 274° |
| 2026-04-23 11:09 | 40.04257 | 114.27805 | 37925 ft | 453 kts | 275° |
| 2026-04-23 11:09 | 40.05081 | 114.19658 | 37934 ft | 452 kts | 282° |
| 2026-04-23 11:10 | 40.06705 | 114.11716 | 37924 ft | 452 kts | 289° |
| 2026-04-23 11:10 | 40.09102 | 114.04124 | 37920 ft | 452 kts | 296° |
| 2026-04-23 11:11 | 40.12071 | 113.96896 | 37935 ft | 451 kts | 298° |
| 2026-04-23 11:11 | 40.15014 | 113.89655 | 37913 ft | 451 kts | 297° |
| 2026-04-23 11:12 | 40.17945 | 113.82400 | 37917 ft | 451 kts | 297° |
| 2026-04-23 11:12 | 40.20877 | 113.75141 | 37919 ft | 451 kts | 297° |
| 2026-04-23 11:13 | 40.23798 | 113.67892 | 37940 ft | 449 kts | 297° |
| 2026-04-23 11:13 | 40.26722 | 113.60658 | 37946 ft | 449 kts | 297° |
| 2026-04-23 11:14 | 40.29666 | 113.53438 | 37942 ft | 449 kts | 298° |
| 2026-04-23 11:14 | 40.32588 | 113.46261 | 37956 ft | 449 kts | 297° |
| 2026-04-23 11:15 | 40.35524 | 113.39031 | 37955 ft | 448 kts | 297° |
| 2026-04-23 11:15 | 40.38449 | 113.31803 | 37959 ft | 448 kts | 297° |
| 2026-04-23 11:16 | 40.41369 | 113.24574 | 37952 ft | 448 kts | 297° |
| 2026-04-23 11:16 | 40.44281 | 113.17350 | 37953 ft | 447 kts | 297° |
| 2026-04-23 11:17 | 40.47183 | 113.10125 | 37971 ft | 447 kts | 297° |
| 2026-04-23 11:17 | 40.50065 | 113.02906 | 37962 ft | 445 kts | 297° |
| 2026-04-23 11:18 | 40.52926 | 112.95687 | 37968 ft | 445 kts | 297° |
| 2026-04-23 11:18 | 40.55676 | 112.88373 | 37965 ft | 444 kts | 293° |
| 2026-04-23 11:19 | 40.57857 | 112.80762 | 37974 ft | 444 kts | 287° |
| 2026-04-23 11:19 | 40.59329 | 112.72875 | 37968 ft | 443 kts | 281° |
| 2026-04-23 11:20 | 40.60111 | 112.64836 | 37970 ft | 443 kts | 275° |
| 2026-04-23 11:20 | 40.60600 | 112.56743 | 37977 ft | 443 kts | 275° |
| 2026-04-23 11:21 | 40.61041 | 112.48638 | 37974 ft | 443 kts | 273° |
| 2026-04-23 11:21 | 40.61256 | 112.40525 | 37979 ft | 442 kts | 272° |
| 2026-04-23 11:22 | 40.61450 | 112.32434 | 37984 ft | 442 kts | 272° |
| 2026-04-23 11:22 | 40.61641 | 112.24338 | 37971 ft | 442 kts | 272° |
| 2026-04-23 11:23 | 40.61829 | 112.16196 | 37973 ft | 443 kts | 272° |
| 2026-04-23 11:23 | 40.62009 | 112.08078 | 37980 ft | 442 kts | 272° |
| 2026-04-23 11:24 | 40.62187 | 111.99975 | 37971 ft | 442 kts | 272° |
| 2026-04-23 11:24 | 40.62365 | 111.91874 | 37963 ft | 442 kts | 272° |
| 2026-04-23 11:25 | 40.62502 | 111.83776 | 37960 ft | 442 kts | 272° |
| 2026-04-23 11:25 | 40.62655 | 111.75677 | 37959 ft | 441 kts | 272° |
| 2026-04-23 11:26 | 40.62805 | 111.67595 | 37960 ft | 440 kts | 272° |
| 2026-04-23 11:26 | 40.62949 | 111.59528 | 37960 ft | 440 kts | 272° |
| 2026-04-23 11:27 | 40.63086 | 111.51455 | 37945 ft | 440 kts | 272° |
| 2026-04-23 11:27 | 40.63218 | 111.43438 | 37943 ft | 440 kts | 272° |
| 2026-04-23 11:28 | 40.63345 | 111.35362 | 37942 ft | 440 kts | 272° |
| 2026-04-23 11:28 | 40.63467 | 111.27292 | 37939 ft | 440 kts | 271° |
| 2026-04-23 11:29 | 40.63582 | 111.19226 | 37946 ft | 440 kts | 271° |
| 2026-04-23 11:29 | 40.63691 | 111.11151 | 37917 ft | 440 kts | 271° |
| 2026-04-23 11:30 | 40.63793 | 111.03068 | 37927 ft | 441 kts | 271° |
| 2026-04-23 11:30 | 40.63892 | 110.94983 | 37932 ft | 441 kts | 271° |
| 2026-04-23 11:31 | 40.63986 | 110.86887 | 37938 ft | 441 kts | 271° |
| 2026-04-23 11:31 | 40.64074 | 110.78794 | 37939 ft | 441 kts | 271° |
| 2026-04-23 11:32 | 40.64157 | 110.70713 | 37933 ft | 440 kts | 271° |
| 2026-04-23 11:32 | 40.64234 | 110.62638 | 37918 ft | 441 kts | 271° |
| 2026-04-23 11:33 | 40.64305 | 110.54563 | 37927 ft | 440 kts | 271° |
| 2026-04-23 11:33 | 40.64369 | 110.46546 | 37917 ft | 440 kts | 271° |
| 2026-04-23 11:34 | 40.64430 | 110.38477 | 37921 ft | 440 kts | 271° |
| 2026-04-23 11:34 | 40.64485 | 110.30416 | 37913 ft | 440 kts | 271° |
| 2026-04-23 11:35 | 40.64535 | 110.22347 | 37917 ft | 440 kts | 271° |
| 2026-04-23 11:35 | 40.64569 | 110.14276 | 37902 ft | 440 kts | 268° |
| 2026-04-23 11:35 | 40.64082 | 110.10301 | 37889 ft | 441 kts | 253° |
| 2026-04-23 11:36 | 40.62765 | 110.06641 | 37889 ft | 445 kts | 238° |
| 2026-04-23 11:36 | 40.58596 | 110.00532 | 37901 ft | 450 kts | 229° |
| 2026-04-23 11:37 | 40.54242 | 109.94617 | 37900 ft | 450 kts | 229° |
| 2026-04-23 11:37 | 40.49903 | 109.88674 | 37881 ft | 449 kts | 232° |
| 2026-04-23 11:38 | 40.46240 | 109.82052 | 37871 ft | 447 kts | 237° |
| 2026-04-23 11:38 | 40.42701 | 109.75322 | 37879 ft | 448 kts | 237° |
| 2026-04-23 11:39 | 40.39151 | 109.68603 | 37887 ft | 448 kts | 237° |
| 2026-04-23 11:39 | 40.35590 | 109.61895 | 37885 ft | 448 kts | 237° |
| 2026-04-23 11:40 | 40.32023 | 109.55195 | 37887 ft | 448 kts | 237° |
| 2026-04-23 11:40 | 40.28447 | 109.48497 | 37881 ft | 449 kts | 237° |
| 2026-04-23 11:41 | 40.24864 | 109.41798 | 37892 ft | 448 kts | 237° |
| 2026-04-23 11:41 | 40.21886 | 109.36243 | 37884 ft | 448 kts | 237° |
| 2026-04-23 11:42 | 40.18302 | 109.29571 | 37887 ft | 448 kts | 237° |
| 2026-04-23 11:42 | 40.14713 | 109.22904 | 37870 ft | 448 kts | 237° |
| 2026-04-23 11:43 | 40.11115 | 109.16235 | 37891 ft | 449 kts | 237° |
| 2026-04-23 11:43 | 40.07508 | 109.09561 | 37896 ft | 448 kts | 237° |
| 2026-04-23 11:44 | 40.03907 | 109.02914 | 37891 ft | 448 kts | 237° |
| 2026-04-23 11:44 | 40.00303 | 108.96276 | 37897 ft | 448 kts | 237° |
| 2026-04-23 11:45 | 39.96694 | 108.89643 | 37890 ft | 449 kts | 237° |
| 2026-04-23 11:45 | 39.93077 | 108.83007 | 37895 ft | 449 kts | 237° |
| 2026-04-23 11:46 | 39.89456 | 108.76378 | 37899 ft | 448 kts | 237° |
| 2026-04-23 11:46 | 39.85835 | 108.69763 | 37897 ft | 448 kts | 236° |
| 2026-04-23 11:47 | 39.82212 | 108.63160 | 37887 ft | 448 kts | 236° |
| 2026-04-23 11:47 | 39.78582 | 108.56558 | 37896 ft | 448 kts | 236° |
| 2026-04-23 11:48 | 39.74971 | 108.50002 | 37902 ft | 448 kts | 236° |
| 2026-04-23 11:48 | 39.71333 | 108.43409 | 37910 ft | 448 kts | 236° |
| 2026-04-23 11:49 | 39.67695 | 108.36830 | 37906 ft | 448 kts | 236° |
| 2026-04-23 11:49 | 39.64055 | 108.30260 | 37905 ft | 448 kts | 236° |
| 2026-04-23 11:50 | 39.60409 | 108.23698 | 37908 ft | 448 kts | 236° |
| 2026-04-23 11:50 | 39.56824 | 108.17088 | 37907 ft | 447 kts | 237° |
| 2026-04-23 11:51 | 39.53289 | 108.10442 | 37906 ft | 447 kts | 237° |
| 2026-04-23 11:51 | 39.49743 | 108.03802 | 37909 ft | 448 kts | 237° |
| 2026-04-23 11:52 | 39.46189 | 107.97173 | 37908 ft | 448 kts | 237° |
| 2026-04-23 11:52 | 39.42629 | 107.90548 | 37911 ft | 448 kts | 237° |
| 2026-04-23 11:53 | 39.39067 | 107.83932 | 37906 ft | 448 kts | 237° |
| 2026-04-23 11:53 | 39.35519 | 107.77360 | 37903 ft | 448 kts | 237° |
| 2026-04-23 11:54 | 39.31946 | 107.70751 | 37889 ft | 448 kts | 237° |
| 2026-04-23 11:54 | 39.28384 | 107.64143 | 37904 ft | 448 kts | 237° |
| 2026-04-23 11:55 | 39.24806 | 107.57547 | 37904 ft | 448 kts | 237° |
| 2026-04-23 11:55 | 39.21220 | 107.50961 | 37902 ft | 448 kts | 237° |
| 2026-04-23 11:56 | 39.17629 | 107.44381 | 37899 ft | 448 kts | 237° |
| 2026-04-23 11:56 | 39.14042 | 107.37801 | 37883 ft | 448 kts | 237° |
| 2026-04-23 11:57 | 39.10452 | 107.31217 | 37894 ft | 449 kts | 237° |
| 2026-04-23 11:57 | 39.06845 | 107.24645 | 37895 ft | 449 kts | 237° |
| 2026-04-23 11:58 | 39.03224 | 107.18063 | 37895 ft | 449 kts | 237° |
| 2026-04-23 11:58 | 38.99615 | 107.11512 | 37886 ft | 449 kts | 237° |
| 2026-04-23 11:59 | 38.95996 | 107.04962 | 37888 ft | 449 kts | 237° |
| 2026-04-23 11:59 | 38.92377 | 106.98430 | 37889 ft | 448 kts | 237° |
| 2026-04-23 12:00 | 38.88757 | 106.91901 | 37884 ft | 448 kts | 237° |
| 2026-04-23 12:00 | 38.85157 | 106.85420 | 37892 ft | 448 kts | 237° |
| 2026-04-23 12:01 | 38.81507 | 106.78862 | 37887 ft | 448 kts | 237° |
| 2026-04-23 12:01 | 38.77901 | 106.72399 | 37888 ft | 448 kts | 237° |
| 2026-04-23 12:02 | 38.74263 | 106.65890 | 37885 ft | 449 kts | 237° |
| 2026-04-23 12:02 | 38.70615 | 106.59375 | 37884 ft | 449 kts | 237° |
| 2026-04-23 12:03 | 38.66965 | 106.52870 | 37886 ft | 450 kts | 237° |
| 2026-04-23 12:03 | 38.63309 | 106.46369 | 37891 ft | 450 kts | 237° |
| 2026-04-23 12:04 | 38.59646 | 106.39868 | 37889 ft | 450 kts | 237° |
| 2026-04-23 12:04 | 38.55979 | 106.33374 | 37890 ft | 451 kts | 237° |
| 2026-04-23 12:05 | 38.52297 | 106.26863 | 37893 ft | 452 kts | 237° |
| 2026-04-23 12:05 | 38.48606 | 106.20348 | 37906 ft | 452 kts | 237° |
| 2026-04-23 12:06 | 38.44907 | 106.13836 | 37885 ft | 452 kts | 237° |
| 2026-04-23 12:06 | 38.39238 | 106.04163 | 37912 ft | 454 kts | 236° |
| 2026-04-23 12:07 | 38.35403 | 105.97770 | 37908 ft | 454 kts | 236° |
| 2026-04-23 12:07 | 38.31569 | 105.91373 | 37918 ft | 454 kts | 236° |
| 2026-04-23 12:08 | 38.27735 | 105.84975 | 37914 ft | 454 kts | 236° |
| 2026-04-23 12:08 | 38.23896 | 105.78588 | 37910 ft | 454 kts | 237° |
| 2026-04-23 12:09 | 38.20056 | 105.72200 | 37926 ft | 454 kts | 237° |
| 2026-04-23 12:09 | 38.16213 | 105.65821 | 37924 ft | 454 kts | 237° |
| 2026-04-23 12:10 | 38.12365 | 105.59450 | 37930 ft | 454 kts | 237° |
| 2026-04-23 12:10 | 38.08516 | 105.53086 | 37937 ft | 454 kts | 237° |
| 2026-04-23 12:11 | 38.04661 | 105.46730 | 37945 ft | 454 kts | 237° |
| 2026-04-23 12:11 | 38.00798 | 105.40366 | 37951 ft | 455 kts | 237° |
| 2026-04-23 12:12 | 37.96934 | 105.34018 | 37957 ft | 455 kts | 237° |
| 2026-04-23 12:12 | 37.93099 | 105.27731 | 37953 ft | 455 kts | 237° |
| 2026-04-23 12:13 | 37.89182 | 105.21319 | 37966 ft | 455 kts | 237° |
| 2026-04-23 12:13 | 37.85299 | 105.14973 | 37973 ft | 456 kts | 237° |
| 2026-04-23 12:14 | 37.81410 | 105.08631 | 37973 ft | 456 kts | 237° |
| 2026-04-23 12:14 | 37.77547 | 105.02342 | 37982 ft | 456 kts | 237° |
| 2026-04-23 12:15 | 37.73655 | 104.96019 | 37983 ft | 456 kts | 237° |
| 2026-04-23 12:15 | 37.69753 | 104.89695 | 37973 ft | 456 kts | 237° |
| 2026-04-23 12:16 | 37.65838 | 104.83359 | 37991 ft | 457 kts | 237° |
| 2026-04-23 12:16 | 37.61920 | 104.77027 | 38011 ft | 457 kts | 237° |
| 2026-04-23 12:17 | 37.57995 | 104.70696 | 37998 ft | 458 kts | 237° |
| 2026-04-23 12:17 | 37.54067 | 104.64375 | 38011 ft | 458 kts | 237° |
| 2026-04-23 12:18 | 37.50137 | 104.58060 | 38020 ft | 458 kts | 237° |
| 2026-04-23 12:18 | 37.46201 | 104.51751 | 38026 ft | 458 kts | 237° |
| 2026-04-23 12:19 | 37.42313 | 104.45404 | 38039 ft | 457 kts | 238° |
| 2026-04-23 12:19 | 37.38474 | 104.39014 | 38040 ft | 457 kts | 238° |
| 2026-04-23 12:20 | 37.34625 | 104.32639 | 38053 ft | 457 kts | 238° |
| 2026-04-23 12:20 | 37.30494 | 104.26470 | 38036 ft | 464 kts | 227° |
| 2026-04-23 12:21 | 37.25064 | 104.22013 | 38051 ft | 479 kts | 209° |
| 2026-04-23 12:21 | 37.18530 | 104.19876 | 38074 ft | 496 kts | 189° |
| 2026-04-23 12:22 | 37.11577 | 104.20469 | 38091 ft | 506 kts | 175° |
| 2026-04-23 12:22 | 37.04644 | 104.22026 | 38076 ft | 505 kts | 174° |
| 2026-04-23 12:23 | 36.97753 | 104.23546 | 38080 ft | 503 kts | 175° |
| 2026-04-23 12:23 | 36.90863 | 104.25026 | 38078 ft | 502 kts | 175° |
| 2026-04-23 12:24 | 36.83971 | 104.26514 | 38062 ft | 503 kts | 175° |
| 2026-04-23 12:24 | 36.77053 | 104.28004 | 38077 ft | 505 kts | 175° |
| 2026-04-23 12:25 | 36.70126 | 104.29491 | 38077 ft | 505 kts | 175° |
| 2026-04-23 12:25 | 36.63194 | 104.30976 | 38078 ft | 505 kts | 175° |
| 2026-04-23 12:26 | 36.56239 | 104.32462 | 38068 ft | 507 kts | 175° |
| 2026-04-23 12:26 | 36.49280 | 104.33813 | 38079 ft | 504 kts | 179° |
| 2026-04-23 12:27 | 36.42355 | 104.34304 | 38079 ft | 500 kts | 185° |
| 2026-04-23 12:27 | 36.38812 | 104.34352 | 37819 ft | 500 kts | 184° |
| 2026-04-23 12:27 | 36.35345 | 104.34399 | 37534 ft | 496 kts | 185° |
| 2026-04-23 12:28 | 36.31953 | 104.34443 | 37263 ft | 491 kts | 186° |
| 2026-04-23 12:28 | 36.28642 | 104.33861 | 36941 ft | 472 kts | 204° |
| 2026-04-23 12:28 | 36.25754 | 104.32108 | 36687 ft | 456 kts | 222° |
| 2026-04-23 12:28 | 36.23468 | 104.29479 | 36436 ft | 443 kts | 237° |
| 2026-04-23 12:29 | 36.21898 | 104.26258 | 36191 ft | 433 kts | 252° |
| 2026-04-23 12:29 | 36.21091 | 104.22701 | 35894 ft | 426 kts | 266° |
| 2026-04-23 12:29 | 36.21059 | 104.19058 | 35476 ft | 422 kts | 279° |
| 2026-04-23 12:29 | 36.21786 | 104.15553 | 34954 ft | 420 kts | 293° |
| 2026-04-23 12:30 | 36.22964 | 104.12228 | 34346 ft | 422 kts | 292° |
| 2026-04-23 12:30 | 36.23795 | 104.08731 | 33645 ft | 425 kts | 283° |
| 2026-04-23 12:30 | 36.24427 | 104.05148 | 32993 ft | 425 kts | 283° |
| 2026-04-23 12:30 | 36.25046 | 104.01563 | 32364 ft | 424 kts | 283° |
| 2026-04-23 12:31 | 36.25645 | 103.97989 | 31751 ft | 424 kts | 283° |
| 2026-04-23 12:31 | 36.26044 | 103.95567 | 31335 ft | 424 kts | 283° |
| 2026-04-23 12:31 | 36.26620 | 103.92029 | 30728 ft | 424 kts | 282° |
| 2026-04-23 12:31 | 36.27200 | 103.88433 | 30108 ft | 425 kts | 282° |
| 2026-04-23 12:32 | 36.27774 | 103.84836 | 29376 ft | 426 kts | 282° |
| 2026-04-23 12:32 | 36.28347 | 103.81231 | 28675 ft | 426 kts | 282° |
| 2026-04-23 12:32 | 36.28917 | 103.77623 | 27980 ft | 426 kts | 282° |
| 2026-04-23 12:32 | 36.29487 | 103.74006 | 27525 ft | 429 kts | 282° |
| 2026-04-23 12:33 | 36.30057 | 103.70382 | 27064 ft | 426 kts | 282° |
| 2026-04-23 12:33 | 36.30623 | 103.66782 | 26539 ft | 423 kts | 282° |
| 2026-04-23 12:33 | 36.31181 | 103.63221 | 26088 ft | 418 kts | 282° |
| 2026-04-23 12:33 | 36.31733 | 103.59698 | 25630 ft | 413 kts | 282° |
| 2026-04-23 12:34 | 36.32277 | 103.56209 | 25178 ft | 409 kts | 282° |
| 2026-04-23 12:34 | 36.32815 | 103.52755 | 24745 ft | 405 kts | 282° |
| 2026-04-23 12:34 | 36.33350 | 103.49318 | 24300 ft | 402 kts | 282° |
| 2026-04-23 12:34 | 36.33878 | 103.45927 | 23860 ft | 398 kts | 282° |
| 2026-04-23 12:35 | 36.34399 | 103.42556 | 23393 ft | 396 kts | 282° |
| 2026-04-23 12:35 | 36.34917 | 103.39211 | 22887 ft | 393 kts | 282° |
| 2026-04-23 12:35 | 36.35430 | 103.35892 | 22401 ft | 390 kts | 282° |
| 2026-04-23 12:35 | 36.35938 | 103.32592 | 21938 ft | 388 kts | 282° |
| 2026-04-23 12:36 | 36.36442 | 103.29312 | 21472 ft | 385 kts | 282° |
| 2026-04-23 12:36 | 36.36943 | 103.26049 | 21003 ft | 384 kts | 282° |
| 2026-04-23 12:36 | 36.37441 | 103.22797 | 20547 ft | 382 kts | 282° |
| 2026-04-23 12:36 | 36.37934 | 103.19554 | 20105 ft | 381 kts | 282° |
| 2026-04-23 12:37 | 36.38428 | 103.16321 | 19618 ft | 381 kts | 281° |
| 2026-04-23 12:37 | 36.38920 | 103.13087 | 19139 ft | 381 kts | 281° |
| 2026-04-23 12:37 | 36.39407 | 103.09854 | 18635 ft | 381 kts | 282° |
| 2026-04-23 12:37 | 36.39899 | 103.06607 | 18055 ft | 382 kts | 282° |
| 2026-04-23 12:38 | 36.40390 | 103.03361 | 17531 ft | 382 kts | 282° |
| 2026-04-23 12:38 | 36.40879 | 103.00125 | 17042 ft | 380 kts | 282° |
| 2026-04-23 12:38 | 36.41365 | 102.96905 | 16579 ft | 379 kts | 282° |
| 2026-04-23 12:38 | 36.41849 | 102.93689 | 16121 ft | 377 kts | 282° |
| 2026-04-23 12:39 | 36.42328 | 102.90489 | 15703 ft | 376 kts | 282° |
| 2026-04-23 12:39 | 36.42805 | 102.87298 | 15269 ft | 374 kts | 282° |
| 2026-04-23 12:39 | 36.43259 | 102.84177 | 15199 ft | 359 kts | 281° |
| 2026-04-23 12:39 | 36.43649 | 102.81177 | 15170 ft | 344 kts | 280° |
| 2026-04-23 12:40 | 36.44111 | 102.78326 | 15122 ft | 329 kts | 288° |
| 2026-04-23 12:40 | 36.44959 | 102.75779 | 15113 ft | 322 kts | 300° |
| 2026-04-23 12:40 | 36.46185 | 102.73453 | 15068 ft | 321 kts | 308° |
| 2026-04-23 12:40 | 36.47533 | 102.71230 | 15037 ft | 322 kts | 308° |
| 2026-04-23 12:41 | 36.48892 | 102.69016 | 15012 ft | 322 kts | 309° |
| 2026-04-23 12:41 | 36.50249 | 102.66797 | 14975 ft | 322 kts | 308° |
| 2026-04-23 12:41 | 36.51564 | 102.64532 | 14908 ft | 324 kts | 300° |
| 2026-04-23 12:41 | 36.52182 | 102.61854 | 14771 ft | 328 kts | 272° |
| 2026-04-23 12:42 | 36.51710 | 102.59092 | 14393 ft | 330 kts | 242° |
| 2026-04-23 12:42 | 36.50452 | 102.56698 | 14032 ft | 330 kts | 234° |
| 2026-04-23 12:42 | 36.49160 | 102.54336 | 13622 ft | 329 kts | 237° |
| 2026-04-23 12:42 | 36.47991 | 102.51920 | 13325 ft | 323 kts | 241° |
| 2026-04-23 12:43 | 36.46922 | 102.49471 | 12918 ft | 322 kts | 242° |
| 2026-04-23 12:43 | 36.45880 | 102.46985 | 12470 ft | 321 kts | 243° |
| 2026-04-23 12:43 | 36.44858 | 102.44525 | 12032 ft | 319 kts | 243° |
| 2026-04-23 12:43 | 36.43842 | 102.42080 | 11623 ft | 317 kts | 243° |
| 2026-04-23 12:44 | 36.43068 | 102.39542 | 11292 ft | 312 kts | 264° |
| 2026-04-23 12:44 | 36.43345 | 102.37011 | 11277 ft | 293 kts | 294° |
| 2026-04-23 12:44 | 36.44211 | 102.34791 | 11288 ft | 276 kts | 297° |
| 2026-04-23 12:44 | 36.44983 | 102.32685 | 11272 ft | 258 kts | 294° |
| 2026-04-23 12:45 | 36.45624 | 102.30690 | 11128 ft | 241 kts | 292° |
| 2026-04-23 12:45 | 36.46182 | 102.28778 | 10866 ft | 230 kts | 290° |
| 2026-04-23 12:45 | 36.46695 | 102.26928 | 10553 ft | 222 kts | 289° |
| 2026-04-23 12:45 | 36.47177 | 102.25160 | 10261 ft | 210 kts | 289° |
| 2026-04-23 12:46 | 36.47630 | 102.23499 | 10003 ft | 197 kts | 290° |
| 2026-04-23 12:46 | 36.48059 | 102.21934 | 9741 ft | 186 kts | 289° |
| 2026-04-23 12:46 | 36.48476 | 102.20417 | 9507 ft | 184 kts | 289° |
| 2026-04-23 12:46 | 36.48891 | 102.18915 | 9266 ft | 182 kts | 289° |
| 2026-04-23 12:47 | 36.49302 | 102.17422 | 9030 ft | 182 kts | 289° |
| 2026-04-23 12:47 | 36.49713 | 102.15932 | 8784 ft | 181 kts | 289° |
| 2026-04-23 12:47 | 36.50121 | 102.14457 | 8532 ft | 180 kts | 289° |
| 2026-04-23 12:47 | 36.50525 | 102.12997 | 8288 ft | 177 kts | 289° |
| 2026-04-23 12:48 | 36.50929 | 102.11556 | 8039 ft | 176 kts | 290° |
| 2026-04-23 12:48 | 36.51346 | 102.10114 | 7815 ft | 176 kts | 290° |
| 2026-04-23 12:48 | 36.51738 | 102.08668 | 7576 ft | 177 kts | 288° |
| 2026-04-23 12:48 | 36.52114 | 102.07222 | 7366 ft | 175 kts | 289° |
| 2026-04-23 12:49 | 36.52515 | 102.05793 | 7187 ft | 174 kts | 290° |
| 2026-04-23 12:49 | 36.52890 | 102.04485 | 7188 ft | 135 kts | 288° |
| 2026-04-23 12:49 | 36.53136 | 102.03596 | 7182 ft | 83 kts | 289° |
| 2026-04-23 12:49 | 36.53272 | 102.03109 | 7185 ft | 45 kts | 289° |
| 2026-04-23 12:50 | 36.53367 | 102.02763 | 7196 ft | 40 kts | 289° |
| 2026-04-23 12:50 | 36.53454 | 102.02452 | 7200 ft | 36 kts | 289° |
| 2026-04-23 12:50 | 36.53534 | 102.02166 | 7203 ft | 34 kts | 289° |
| 2026-04-23 12:50 | 36.53551 | 102.01966 | 7206 ft | 20 kts | 221° |
| 2026-04-23 12:51 | 36.53433 | 102.01946 | 7208 ft | 19 kts | 127° |
| 2026-04-23 12:51 | 36.53377 | 102.02101 | 7206 ft | 21 kts | 109° |
| 2026-04-23 12:51 | 36.53328 | 102.02278 | 7205 ft | 22 kts | 109° |
| 2026-04-23 12:51 | 36.53275 | 102.02465 | 7205 ft | 23 kts | 109° |
| 2026-04-23 12:52 | 36.53224 | 102.02648 | 7209 ft | 22 kts | 109° |
| 2026-04-23 12:52 | 36.53174 | 102.02824 | 7209 ft | 22 kts | 109° |
| 2026-04-23 12:52 | 36.53120 | 102.03018 | 7203 ft | 25 kts | 109° |
| 2026-04-23 12:52 | 36.53060 | 102.03234 | 7198 ft | 27 kts | 109° |
| 2026-04-23 12:53 | 36.52995 | 102.03464 | 7188 ft | 29 kts | 109° |
| 2026-04-23 12:53 | 36.52931 | 102.03702 | 7184 ft | 29 kts | 108° |
| 2026-04-23 12:53 | 36.52876 | 102.03904 | 7176 ft | 11 kts | 109° |
| 2026-04-23 12:53 | 36.52856 | 102.03962 | 7177 ft | 8 kts | 128° |
| 2026-04-23 12:54 | 36.52796 | 102.03983 | 7179 ft | 10 kts | 190° |
| 2026-04-23 12:54 | 36.52718 | 102.03954 | 7178 ft | 13 kts | 198° |
| 2026-04-23 12:54 | 36.52675 | 102.03930 | 7171 ft | 6 kts | 224° |
| 2026-04-23 12:54 | 36.52664 | 102.03907 | 7174 ft | 0 kts | 246° |
| 2026-04-23 12:55 | 36.52661 | 102.03899 | 7171 ft | 2 kts | 245° |
| 2026-04-23 12:55 | 36.52652 | 102.03883 | 7172 ft | 3 kts | 231° |
| 2026-04-23 12:55 | 36.52631 | 102.03861 | 7180 ft | 5 kts | 211° |
| 2026-04-23 12:55 | 36.52623 | 102.03856 | 7183 ft | 1 kts | 206° |